sensor_id;sensor_type;location;lat;lon;timestamp;temperature;humidity
74901;DHT22;63461;51.416;6.758;2023-01-09T00:01:47;9.70;99.90
74901;DHT22;63461;51.416;6.758;2023-01-09T00:04:14;9.50;99.90
74901;DHT22;63461;51.416;6.758;2023-01-09T00:06:40;9.60;99.90
74901;DHT22;63461;51.416;6.758;2023-01-09T00:09:08;9.60;99.90
74901;DHT22;63461;51.416;6.758;2023-01-09T00:11:35;9.50;99.90
74901;DHT22;63461;51.416;6.758;2023-01-09T00:14:00;9.60;99.90
74901;DHT22;63461;51.416;6.758;2023-01-09T00:16:26;9.50;99.90
74901;DHT22;63461;51.416;6.758;2023-01-09T00:18:52;9.60;99.90
74901;DHT22;63461;51.416;6.758;2023-01-09T00:21:18;9.60;99.90
74901;DHT22;63461;51.416;6.758;2023-01-09T00:23:45;9.60;99.90
74901;DHT22;63461;51.416;6.758;2023-01-09T00:26:13;9.60;99.90
74901;DHT22;63461;51.416;6.758;2023-01-09T00:28:40;9.60;99.90
74901;DHT22;63461;51.416;6.758;2023-01-09T00:31:07;9.60;99.90
74901;DHT22;63461;51.416;6.758;2023-01-09T00:33:40;9.70;99.90
74901;DHT22;63461;51.416;6.758;2023-01-09T00:36:07;9.60;99.90
74901;DHT22;63461;51.416;6.758;2023-01-09T00:38:33;9.60;99.90
74901;DHT22;63461;51.416;6.758;2023-01-09T00:40:59;9.60;99.90
74901;DHT22;63461;51.416;6.758;2023-01-09T00:43:31;9.60;99.90
74901;DHT22;63461;51.416;6.758;2023-01-09T00:45:58;9.50;99.90
74901;DHT22;63461;51.416;6.758;2023-01-09T00:48:26;9.50;99.90
74901;DHT22;63461;51.416;6.758;2023-01-09T00:50:56;9.50;99.90
74901;DHT22;63461;51.416;6.758;2023-01-09T00:53:25;9.40;99.90
74901;DHT22;63461;51.416;6.758;2023-01-09T00:55:53;9.40;99.90
74901;DHT22;63461;51.416;6.758;2023-01-09T00:58:19;9.30;99.90
74901;DHT22;63461;51.416;6.758;2023-01-09T01:00:45;9.30;99.90
74901;DHT22;63461;51.416;6.758;2023-01-09T01:03:10;9.40;99.90
74901;DHT22;63461;51.416;6.758;2023-01-09T01:05:36;9.30;99.90
74901;DHT22;63461;51.416;6.758;2023-01-09T01:08:21;9.30;99.90
74901;DHT22;63461;51.416;6.758;2023-01-09T01:10:47;9.30;99.90
74901;DHT22;63461;51.416;6.758;2023-01-09T01:13:14;9.30;99.90
74901;DHT22;63461;51.416;6.758;2023-01-09T01:15:42;9.10;99.90
74901;DHT22;63461;51.416;6.758;2023-01-09T01:18:09;9.10;99.90
74901;DHT22;63461;51.416;6.758;2023-01-09T01:20:35;9.10;99.90
74901;DHT22;63461;51.416;6.758;2023-01-09T01:23:01;9.10;99.90
74901;DHT22;63461;51.416;6.758;2023-01-09T01:25:27;9.00;99.90
74901;DHT22;63461;51.416;6.758;2023-01-09T01:27:53;9.00;99.90
74901;DHT22;63461;51.416;6.758;2023-01-09T01:30:18;9.00;99.90
74901;DHT22;63461;51.416;6.758;2023-01-09T01:32:44;9.00;99.90
74901;DHT22;63461;51.416;6.758;2023-01-09T01:35:10;9.10;99.90
74901;DHT22;63461;51.416;6.758;2023-01-09T01:37:37;9.10;99.90
74901;DHT22;63461;51.416;6.758;2023-01-09T01:40:05;9.10;99.90
74901;DHT22;63461;51.416;6.758;2023-01-09T01:42:31;9.20;99.90
74901;DHT22;63461;51.416;6.758;2023-01-09T01:45:10;9.20;99.90
74901;DHT22;63461;51.416;6.758;2023-01-09T01:50:15;9.20;99.90
74901;DHT22;63461;51.416;6.758;2023-01-09T01:52:44;9.00;99.90
74901;DHT22;63461;51.416;6.758;2023-01-09T01:55:11;9.10;99.90
74901;DHT22;63461;51.416;6.758;2023-01-09T01:57:39;9.00;99.90
74901;DHT22;63461;51.416;6.758;2023-01-09T02:00:08;9.00;99.90
74901;DHT22;63461;51.416;6.758;2023-01-09T02:02:35;9.00;99.90
74901;DHT22;63461;51.416;6.758;2023-01-09T02:05:03;9.00;99.90
74901;DHT22;63461;51.416;6.758;2023-01-09T02:07:29;9.00;99.90
74901;DHT22;63461;51.416;6.758;2023-01-09T02:09:55;8.90;99.90
74901;DHT22;63461;51.416;6.758;2023-01-09T02:12:25;8.90;99.90
74901;DHT22;63461;51.416;6.758;2023-01-09T02:14:58;8.90;99.90
74901;DHT22;63461;51.416;6.758;2023-01-09T02:23:19;8.70;99.90
74901;DHT22;63461;51.416;6.758;2023-01-09T02:34:40;8.60;99.90
74901;DHT22;63461;51.416;6.758;2023-01-09T02:37:23;8.60;99.90
74901;DHT22;63461;51.416;6.758;2023-01-09T02:40:00;8.60;99.90
74901;DHT22;63461;51.416;6.758;2023-01-09T02:42:29;8.50;99.90
74901;DHT22;63461;51.416;6.758;2023-01-09T02:44:55;8.50;99.90
74901;DHT22;63461;51.416;6.758;2023-01-09T02:49:55;8.60;99.90
74901;DHT22;63461;51.416;6.758;2023-01-09T02:55:14;8.60;99.90
74901;DHT22;63461;51.416;6.758;2023-01-09T03:03:05;8.60;99.90
74901;DHT22;63461;51.416;6.758;2023-01-09T03:05:41;8.60;99.90
74901;DHT22;63461;51.416;6.758;2023-01-09T03:08:17;8.60;99.90
74901;DHT22;63461;51.416;6.758;2023-01-09T03:10:59;8.50;99.90
74901;DHT22;63461;51.416;6.758;2023-01-09T03:13:29;8.50;99.90
74901;DHT22;63461;51.416;6.758;2023-01-09T03:15:57;8.50;99.90
74901;DHT22;63461;51.416;6.758;2023-01-09T03:18:27;8.40;99.90
74901;DHT22;63461;51.416;6.758;2023-01-09T03:20:54;8.40;99.90
74901;DHT22;63461;51.416;6.758;2023-01-09T03:23:20;8.40;99.90
74901;DHT22;63461;51.416;6.758;2023-01-09T03:25:46;8.30;99.90
74901;DHT22;63461;51.416;6.758;2023-01-09T03:28:32;8.30;99.90
74901;DHT22;63461;51.416;6.758;2023-01-09T03:30:57;8.20;99.90
74901;DHT22;63461;51.416;6.758;2023-01-09T03:33:23;8.20;99.90
74901;DHT22;63461;51.416;6.758;2023-01-09T03:35:49;8.20;99.90
74901;DHT22;63461;51.416;6.758;2023-01-09T03:38:14;8.20;99.90
74901;DHT22;63461;51.416;6.758;2023-01-09T03:40:40;8.10;99.90
74901;DHT22;63461;51.416;6.758;2023-01-09T03:43:08;8.00;99.90
74901;DHT22;63461;51.416;6.758;2023-01-09T03:45:34;8.10;99.90
74901;DHT22;63461;51.416;6.758;2023-01-09T03:47:59;8.10;99.90
74901;DHT22;63461;51.416;6.758;2023-01-09T03:50:25;8.00;99.90
74901;DHT22;63461;51.416;6.758;2023-01-09T03:52:51;7.90;99.90
74901;DHT22;63461;51.416;6.758;2023-01-09T03:55:17;7.90;99.90
74901;DHT22;63461;51.416;6.758;2023-01-09T03:57:43;7.90;99.90
74901;DHT22;63461;51.416;6.758;2023-01-09T04:00:09;7.90;99.90
74901;DHT22;63461;51.416;6.758;2023-01-09T04:02:38;7.90;99.90
74901;DHT22;63461;51.416;6.758;2023-01-09T04:05:04;7.80;99.90
74901;DHT22;63461;51.416;6.758;2023-01-09T04:07:30;7.80;99.90
74901;DHT22;63461;51.416;6.758;2023-01-09T04:09:55;7.70;99.90
74901;DHT22;63461;51.416;6.758;2023-01-09T04:12:21;7.70;99.90
74901;DHT22;63461;51.416;6.758;2023-01-09T04:14:47;7.80;99.90
74901;DHT22;63461;51.416;6.758;2023-01-09T04:17:12;7.70;99.90
74901;DHT22;63461;51.416;6.758;2023-01-09T04:19:41;7.70;99.90
74901;DHT22;63461;51.416;6.758;2023-01-09T04:22:06;7.70;99.90
74901;DHT22;63461;51.416;6.758;2023-01-09T04:24:32;7.80;99.90
74901;DHT22;63461;51.416;6.758;2023-01-09T04:26:58;7.70;99.90
74901;DHT22;63461;51.416;6.758;2023-01-09T04:29:24;7.70;99.90
74901;DHT22;63461;51.416;6.758;2023-01-09T04:31:49;7.70;99.90
74901;DHT22;63461;51.416;6.758;2023-01-09T04:34:15;7.70;99.90
74901;DHT22;63461;51.416;6.758;2023-01-09T04:36:41;7.70;99.90
74901;DHT22;63461;51.416;6.758;2023-01-09T04:39:08;7.70;99.90
74901;DHT22;63461;51.416;6.758;2023-01-09T04:41:34;7.60;99.90
74901;DHT22;63461;51.416;6.758;2023-01-09T04:44:19;7.70;99.90
74901;DHT22;63461;51.416;6.758;2023-01-09T04:46:46;7.70;99.90
74901;DHT22;63461;51.416;6.758;2023-01-09T04:49:12;7.70;99.90
74901;DHT22;63461;51.416;6.758;2023-01-09T04:51:38;7.70;99.90
74901;DHT22;63461;51.416;6.758;2023-01-09T04:54:04;7.60;99.90
74901;DHT22;63461;51.416;6.758;2023-01-09T04:56:30;7.60;99.90
74901;DHT22;63461;51.416;6.758;2023-01-09T04:58:56;7.60;99.90
74901;DHT22;63461;51.416;6.758;2023-01-09T05:01:22;7.60;99.90
74901;DHT22;63461;51.416;6.758;2023-01-09T05:03:48;7.60;99.90
74901;DHT22;63461;51.416;6.758;2023-01-09T05:06:14;7.70;99.90
74901;DHT22;63461;51.416;6.758;2023-01-09T05:08:39;7.80;99.90
74901;DHT22;63461;51.416;6.758;2023-01-09T05:11:05;7.80;99.90
74901;DHT22;63461;51.416;6.758;2023-01-09T05:13:31;7.80;99.90
74901;DHT22;63461;51.416;6.758;2023-01-09T05:15:57;7.90;99.90
74901;DHT22;63461;51.416;6.758;2023-01-09T05:18:23;7.90;99.90
74901;DHT22;63461;51.416;6.758;2023-01-09T05:20:48;7.90;99.90
74901;DHT22;63461;51.416;6.758;2023-01-09T05:23:14;7.90;99.90
74901;DHT22;63461;51.416;6.758;2023-01-09T05:25:40;8.00;99.90
74901;DHT22;63461;51.416;6.758;2023-01-09T05:28:06;8.00;99.90
74901;DHT22;63461;51.416;6.758;2023-01-09T05:30:31;8.00;99.90
74901;DHT22;63461;51.416;6.758;2023-01-09T05:32:57;7.90;99.90
74901;DHT22;63461;51.416;6.758;2023-01-09T05:35:23;8.10;99.90
74901;DHT22;63461;51.416;6.758;2023-01-09T05:37:49;8.10;99.90
74901;DHT22;63461;51.416;6.758;2023-01-09T05:40:14;8.10;99.90
74901;DHT22;63461;51.416;6.758;2023-01-09T05:42:41;8.10;99.90
74901;DHT22;63461;51.416;6.758;2023-01-09T05:45:08;8.10;99.90
74901;DHT22;63461;51.416;6.758;2023-01-09T05:47:34;8.10;99.90
74901;DHT22;63461;51.416;6.758;2023-01-09T05:50:01;8.00;99.90
74901;DHT22;63461;51.416;6.758;2023-01-09T05:52:26;8.20;99.90
74901;DHT22;63461;51.416;6.758;2023-01-09T05:54:52;8.20;99.90
74901;DHT22;63461;51.416;6.758;2023-01-09T05:57:18;8.20;99.90
74901;DHT22;63461;51.416;6.758;2023-01-09T05:59:44;8.20;99.90
74901;DHT22;63461;51.416;6.758;2023-01-09T06:02:09;8.10;99.90
74901;DHT22;63461;51.416;6.758;2023-01-09T06:04:35;8.20;99.90
74901;DHT22;63461;51.416;6.758;2023-01-09T06:07:01;8.20;99.90
74901;DHT22;63461;51.416;6.758;2023-01-09T06:09:27;8.30;99.90
74901;DHT22;63461;51.416;6.758;2023-01-09T06:11:53;8.20;99.90
74901;DHT22;63461;51.416;6.758;2023-01-09T06:14:19;8.20;99.90
74901;DHT22;63461;51.416;6.758;2023-01-09T06:16:46;8.20;99.90
74901;DHT22;63461;51.416;6.758;2023-01-09T06:19:12;8.20;99.90
74901;DHT22;63461;51.416;6.758;2023-01-09T06:21:37;8.20;99.90
74901;DHT22;63461;51.416;6.758;2023-01-09T06:24:04;8.40;99.90
74901;DHT22;63461;51.416;6.758;2023-01-09T06:26:30;8.40;99.90
74901;DHT22;63461;51.416;6.758;2023-01-09T06:28:55;8.30;99.90
74901;DHT22;63461;51.416;6.758;2023-01-09T06:31:23;8.30;99.90
74901;DHT22;63461;51.416;6.758;2023-01-09T06:33:48;8.30;99.90
74901;DHT22;63461;51.416;6.758;2023-01-09T06:36:14;8.40;99.90
74901;DHT22;63461;51.416;6.758;2023-01-09T06:38:40;8.40;99.90
74901;DHT22;63461;51.416;6.758;2023-01-09T06:41:06;8.30;99.90
74901;DHT22;63461;51.416;6.758;2023-01-09T06:43:32;8.40;99.90
74901;DHT22;63461;51.416;6.758;2023-01-09T06:45:58;8.40;99.90
74901;DHT22;63461;51.416;6.758;2023-01-09T06:48:24;8.40;99.90
74901;DHT22;63461;51.416;6.758;2023-01-09T06:50:50;8.50;99.90
74901;DHT22;63461;51.416;6.758;2023-01-09T06:53:16;8.40;99.90
74901;DHT22;63461;51.416;6.758;2023-01-09T06:55:43;8.40;99.90
74901;DHT22;63461;51.416;6.758;2023-01-09T06:58:09;8.40;99.90
74901;DHT22;63461;51.416;6.758;2023-01-09T07:00:35;8.40;99.90
74901;DHT22;63461;51.416;6.758;2023-01-09T07:03:01;8.40;99.90
74901;DHT22;63461;51.416;6.758;2023-01-09T07:05:27;8.40;99.90
74901;DHT22;63461;51.416;6.758;2023-01-09T07:07:53;8.40;99.90
74901;DHT22;63461;51.416;6.758;2023-01-09T07:10:19;8.50;99.90
74901;DHT22;63461;51.416;6.758;2023-01-09T07:12:45;8.50;99.90
74901;DHT22;63461;51.416;6.758;2023-01-09T07:15:10;8.60;99.90
74901;DHT22;63461;51.416;6.758;2023-01-09T07:17:36;8.60;99.90
74901;DHT22;63461;51.416;6.758;2023-01-09T07:20:03;8.60;99.90
74901;DHT22;63461;51.416;6.758;2023-01-09T07:22:29;8.50;99.90
74901;DHT22;63461;51.416;6.758;2023-01-09T07:24:54;8.60;99.90
74901;DHT22;63461;51.416;6.758;2023-01-09T07:27:20;8.50;99.90
74901;DHT22;63461;51.416;6.758;2023-01-09T07:29:46;8.60;99.90
74901;DHT22;63461;51.416;6.758;2023-01-09T07:32:12;8.60;99.90
74901;DHT22;63461;51.416;6.758;2023-01-09T07:34:38;8.60;99.90
74901;DHT22;63461;51.416;6.758;2023-01-09T07:37:03;8.60;99.90
74901;DHT22;63461;51.416;6.758;2023-01-09T07:39:29;8.50;99.90
74901;DHT22;63461;51.416;6.758;2023-01-09T07:41:55;8.60;99.90
74901;DHT22;63461;51.416;6.758;2023-01-09T07:44:21;8.70;99.90
74901;DHT22;63461;51.416;6.758;2023-01-09T07:46:46;8.70;99.90
74901;DHT22;63461;51.416;6.758;2023-01-09T07:49:12;8.60;99.90
74901;DHT22;63461;51.416;6.758;2023-01-09T07:51:38;8.60;99.90
74901;DHT22;63461;51.416;6.758;2023-01-09T07:54:08;8.70;99.90
74901;DHT22;63461;51.416;6.758;2023-01-09T07:56:34;8.60;99.90
74901;DHT22;63461;51.416;6.758;2023-01-09T07:59:00;8.60;99.90
74901;DHT22;63461;51.416;6.758;2023-01-09T08:01:25;8.60;99.90
74901;DHT22;63461;51.416;6.758;2023-01-09T08:03:51;8.60;99.90
74901;DHT22;63461;51.416;6.758;2023-01-09T08:06:17;8.50;99.90
74901;DHT22;63461;51.416;6.758;2023-01-09T08:08:43;8.60;99.90
74901;DHT22;63461;51.416;6.758;2023-01-09T08:11:08;8.70;99.90
74901;DHT22;63461;51.416;6.758;2023-01-09T08:13:34;8.70;99.90
74901;DHT22;63461;51.416;6.758;2023-01-09T08:16:00;8.60;99.90
74901;DHT22;63461;51.416;6.758;2023-01-09T08:18:26;8.70;99.90
74901;DHT22;63461;51.416;6.758;2023-01-09T08:20:52;8.60;99.90
74901;DHT22;63461;51.416;6.758;2023-01-09T08:23:17;8.70;99.90
74901;DHT22;63461;51.416;6.758;2023-01-09T08:25:43;8.70;99.90
74901;DHT22;63461;51.416;6.758;2023-01-09T08:28:09;8.60;99.90
74901;DHT22;63461;51.416;6.758;2023-01-09T08:30:35;8.80;99.90
74901;DHT22;63461;51.416;6.758;2023-01-09T08:33:01;8.70;99.90
74901;DHT22;63461;51.416;6.758;2023-01-09T08:35:26;8.70;99.90
74901;DHT22;63461;51.416;6.758;2023-01-09T08:37:52;8.60;99.90
74901;DHT22;63461;51.416;6.758;2023-01-09T08:40:18;8.70;99.90
74901;DHT22;63461;51.416;6.758;2023-01-09T08:42:44;8.70;99.90
74901;DHT22;63461;51.416;6.758;2023-01-09T08:45:29;8.70;99.90
74901;DHT22;63461;51.416;6.758;2023-01-09T08:48:14;8.60;99.90
74901;DHT22;63461;51.416;6.758;2023-01-09T08:50:41;8.60;99.90
74901;DHT22;63461;51.416;6.758;2023-01-09T08:53:08;8.60;99.90
74901;DHT22;63461;51.416;6.758;2023-01-09T08:55:34;8.70;99.90
74901;DHT22;63461;51.416;6.758;2023-01-09T08:58:00;8.60;99.90
74901;DHT22;63461;51.416;6.758;2023-01-09T09:00:26;8.60;99.90
74901;DHT22;63461;51.416;6.758;2023-01-09T09:02:54;8.60;99.90
74901;DHT22;63461;51.416;6.758;2023-01-09T09:05:21;8.60;99.90
74901;DHT22;63461;51.416;6.758;2023-01-09T09:07:48;8.50;99.90
74901;DHT22;63461;51.416;6.758;2023-01-09T09:10:16;8.60;99.90
74901;DHT22;63461;51.416;6.758;2023-01-09T09:12:42;8.60;99.90
74901;DHT22;63461;51.416;6.758;2023-01-09T09:15:09;8.50;99.90
74901;DHT22;63461;51.416;6.758;2023-01-09T09:17:42;8.50;99.90
74901;DHT22;63461;51.416;6.758;2023-01-09T09:20:11;8.60;99.90
74901;DHT22;63461;51.416;6.758;2023-01-09T09:22:37;8.60;99.90
74901;DHT22;63461;51.416;6.758;2023-01-09T09:25:03;8.70;99.90
74901;DHT22;63461;51.416;6.758;2023-01-09T09:27:30;8.70;99.90
74901;DHT22;63461;51.416;6.758;2023-01-09T09:29:56;8.60;99.90
74901;DHT22;63461;51.416;6.758;2023-01-09T09:32:22;8.70;99.90
74901;DHT22;63461;51.416;6.758;2023-01-09T09:34:47;8.70;99.90
74901;DHT22;63461;51.416;6.758;2023-01-09T09:37:13;8.80;99.90
74901;DHT22;63461;51.416;6.758;2023-01-09T09:39:39;8.80;99.90
74901;DHT22;63461;51.416;6.758;2023-01-09T09:50:55;8.90;99.90
74901;DHT22;63461;51.416;6.758;2023-01-09T09:53:30;8.90;99.90
74901;DHT22;63461;51.416;6.758;2023-01-09T09:55:57;8.90;99.90
74901;DHT22;63461;51.416;6.758;2023-01-09T09:58:49;8.90;99.90
74901;DHT22;63461;51.416;6.758;2023-01-09T10:01:30;8.90;99.90
74901;DHT22;63461;51.416;6.758;2023-01-09T10:03:59;8.90;99.90
74901;DHT22;63461;51.416;6.758;2023-01-09T10:06:33;8.90;99.90
74901;DHT22;63461;51.416;6.758;2023-01-09T10:11:50;9.00;99.90
74901;DHT22;63461;51.416;6.758;2023-01-09T10:14:19;9.00;99.90
74901;DHT22;63461;51.416;6.758;2023-01-09T10:22:26;9.20;99.90
74901;DHT22;63461;51.416;6.758;2023-01-09T10:25:11;9.20;99.90
74901;DHT22;63461;51.416;6.758;2023-01-09T10:30:43;9.10;99.90
74901;DHT22;63461;51.416;6.758;2023-01-09T10:39:01;9.10;99.90
74901;DHT22;63461;51.416;6.758;2023-01-09T10:41:53;9.10;99.90
74901;DHT22;63461;51.416;6.758;2023-01-09T10:44:24;9.10;99.90
74901;DHT22;63461;51.416;6.758;2023-01-09T10:46:53;9.20;99.90
74901;DHT22;63461;51.416;6.758;2023-01-09T10:49:21;9.30;99.90
74901;DHT22;63461;51.416;6.758;2023-01-09T10:51:48;9.30;99.90
74901;DHT22;63461;51.416;6.758;2023-01-09T10:54:17;9.30;99.90
74901;DHT22;63461;51.416;6.758;2023-01-09T10:56:57;9.30;99.90
74901;DHT22;63461;51.416;6.758;2023-01-09T10:59:25;9.30;99.90
74901;DHT22;63461;51.416;6.758;2023-01-09T11:01:52;9.30;99.90
74901;DHT22;63461;51.416;6.758;2023-01-09T11:06:54;9.30;99.90
74901;DHT22;63461;51.416;6.758;2023-01-09T11:09:21;9.20;99.90
74901;DHT22;63461;51.416;6.758;2023-01-09T11:11:47;9.20;99.90
74901;DHT22;63461;51.416;6.758;2023-01-09T11:14:15;9.20;99.90
74901;DHT22;63461;51.416;6.758;2023-01-09T11:16:56;9.20;99.90
74901;DHT22;63461;51.416;6.758;2023-01-09T11:19:23;9.20;99.90
74901;DHT22;63461;51.416;6.758;2023-01-09T11:21:49;9.20;99.90
74901;DHT22;63461;51.416;6.758;2023-01-09T11:29:14;9.30;99.90
74901;DHT22;63461;51.416;6.758;2023-01-09T11:31:41;9.20;99.90
74901;DHT22;63461;51.416;6.758;2023-01-09T11:34:18;9.20;99.90
74901;DHT22;63461;51.416;6.758;2023-01-09T11:36:45;9.20;99.90
74901;DHT22;63461;51.416;6.758;2023-01-09T11:39:38;9.20;99.90
74901;DHT22;63461;51.416;6.758;2023-01-09T11:42:18;9.30;99.90
74901;DHT22;63461;51.416;6.758;2023-01-09T11:44:44;9.20;99.90
74901;DHT22;63461;51.416;6.758;2023-01-09T11:47:33;9.30;99.90
74901;DHT22;63461;51.416;6.758;2023-01-09T11:50:19;9.10;99.90
74901;DHT22;63461;51.416;6.758;2023-01-09T11:53:16;9.20;99.90
74901;DHT22;63461;51.416;6.758;2023-01-09T11:55:43;9.20;99.90
74901;DHT22;63461;51.416;6.758;2023-01-09T11:58:14;9.10;99.90
74901;DHT22;63461;51.416;6.758;2023-01-09T12:00:48;9.10;99.90
74901;DHT22;63461;51.416;6.758;2023-01-09T12:03:41;9.10;99.90
74901;DHT22;63461;51.416;6.758;2023-01-09T12:06:38;9.10;99.90
74901;DHT22;63461;51.416;6.758;2023-01-09T12:09:39;9.10;99.90
74901;DHT22;63461;51.416;6.758;2023-01-09T12:15:07;8.90;99.90
74901;DHT22;63461;51.416;6.758;2023-01-09T12:20:38;8.90;99.90
74901;DHT22;63461;51.416;6.758;2023-01-09T12:23:27;9.00;99.90
74901;DHT22;63461;51.416;6.758;2023-01-09T12:26:22;8.90;99.90
74901;DHT22;63461;51.416;6.758;2023-01-09T12:31:41;8.90;99.90
74901;DHT22;63461;51.416;6.758;2023-01-09T12:48:22;8.90;99.90
74901;DHT22;63461;51.416;6.758;2023-01-09T12:53:30;8.90;99.90
74901;DHT22;63461;51.416;6.758;2023-01-09T12:56:02;8.90;99.90
74901;DHT22;63461;51.416;6.758;2023-01-09T12:58:49;8.90;99.90
74901;DHT22;63461;51.416;6.758;2023-01-09T13:01:28;9.00;99.90
74901;DHT22;63461;51.416;6.758;2023-01-09T13:04:18;8.90;99.90
74901;DHT22;63461;51.416;6.758;2023-01-09T13:06:51;8.90;99.90
74901;DHT22;63461;51.416;6.758;2023-01-09T13:09:31;9.00;99.90
74901;DHT22;63461;51.416;6.758;2023-01-09T13:12:23;9.00;99.90
74901;DHT22;63461;51.416;6.758;2023-01-09T13:17:42;8.90;99.90
74901;DHT22;63461;51.416;6.758;2023-01-09T13:20:46;8.90;99.90
74901;DHT22;63461;51.416;6.758;2023-01-09T13:23:43;8.90;99.90
74901;DHT22;63461;51.416;6.758;2023-01-09T13:26:16;8.90;99.90
74901;DHT22;63461;51.416;6.758;2023-01-09T13:29:06;9.10;99.90
74901;DHT22;63461;51.416;6.758;2023-01-09T13:31:56;8.90;99.90
74901;DHT22;63461;51.416;6.758;2023-01-09T13:34:28;8.90;99.90
74901;DHT22;63461;51.416;6.758;2023-01-09T13:36:55;8.90;99.90
74901;DHT22;63461;51.416;6.758;2023-01-09T13:39:30;8.90;99.90
74901;DHT22;63461;51.416;6.758;2023-01-09T13:42:06;9.00;99.90
74901;DHT22;63461;51.416;6.758;2023-01-09T13:47:42;8.90;99.90
74901;DHT22;63461;51.416;6.758;2023-01-09T13:52:39;8.90;99.90
74901;DHT22;63461;51.416;6.758;2023-01-09T14:08:14;8.90;99.90
74901;DHT22;63461;51.416;6.758;2023-01-09T14:10:47;8.90;99.90
74901;DHT22;63461;51.416;6.758;2023-01-09T14:15:45;8.90;99.90
74901;DHT22;63461;51.416;6.758;2023-01-09T14:18:17;8.90;99.90
74901;DHT22;63461;51.416;6.758;2023-01-09T14:20:53;9.00;99.90
74901;DHT22;63461;51.416;6.758;2023-01-09T14:23:22;9.00;99.90
74901;DHT22;63461;51.416;6.758;2023-01-09T14:25:50;9.00;99.90
74901;DHT22;63461;51.416;6.758;2023-01-09T14:31:05;9.00;99.90
74901;DHT22;63461;51.416;6.758;2023-01-09T14:33:32;9.00;99.90
74901;DHT22;63461;51.416;6.758;2023-01-09T14:46:55;9.00;99.90
74901;DHT22;63461;51.416;6.758;2023-01-09T14:49:44;9.00;99.90
74901;DHT22;63461;51.416;6.758;2023-01-09T14:52:31;8.90;99.90
74901;DHT22;63461;51.416;6.758;2023-01-09T14:55:01;8.90;99.90
74901;DHT22;63461;51.416;6.758;2023-01-09T14:57:31;8.90;99.90
74901;DHT22;63461;51.416;6.758;2023-01-09T15:00:18;8.90;99.90
74901;DHT22;63461;51.416;6.758;2023-01-09T15:02:45;8.90;99.90
74901;DHT22;63461;51.416;6.758;2023-01-09T15:05:14;8.90;99.90
74901;DHT22;63461;51.416;6.758;2023-01-09T15:07:53;9.00;99.90
74901;DHT22;63461;51.416;6.758;2023-01-09T15:10:27;9.00;99.90
74901;DHT22;63461;51.416;6.758;2023-01-09T15:12:54;9.00;99.90
74901;DHT22;63461;51.416;6.758;2023-01-09T15:15:23;8.90;99.90
74901;DHT22;63461;51.416;6.758;2023-01-09T15:18:06;8.90;99.90
74901;DHT22;63461;51.416;6.758;2023-01-09T15:20:33;8.90;99.90
74901;DHT22;63461;51.416;6.758;2023-01-09T15:23:00;8.90;99.90
74901;DHT22;63461;51.416;6.758;2023-01-09T15:25:31;8.90;99.90
74901;DHT22;63461;51.416;6.758;2023-01-09T15:27:59;8.80;99.90
74901;DHT22;63461;51.416;6.758;2023-01-09T15:30:33;8.90;99.90
74901;DHT22;63461;51.416;6.758;2023-01-09T15:33:03;8.90;99.90
74901;DHT22;63461;51.416;6.758;2023-01-09T15:35:29;8.80;99.90
74901;DHT22;63461;51.416;6.758;2023-01-09T15:37:56;8.80;99.90
74901;DHT22;63461;51.416;6.758;2023-01-09T15:40:25;8.90;99.90
74901;DHT22;63461;51.416;6.758;2023-01-09T15:42:53;8.80;99.90
74901;DHT22;63461;51.416;6.758;2023-01-09T15:45:39;8.70;99.90
74901;DHT22;63461;51.416;6.758;2023-01-09T15:50:49;8.70;99.90
74901;DHT22;63461;51.416;6.758;2023-01-09T15:53:18;8.70;99.90
74901;DHT22;63461;51.416;6.758;2023-01-09T15:55:44;8.70;99.90
74901;DHT22;63461;51.416;6.758;2023-01-09T15:58:30;8.70;99.90
74901;DHT22;63461;51.416;6.758;2023-01-09T16:03:46;8.70;99.90
74901;DHT22;63461;51.416;6.758;2023-01-09T16:06:17;8.70;99.90
74901;DHT22;63461;51.416;6.758;2023-01-09T16:08:49;8.70;99.90
74901;DHT22;63461;51.416;6.758;2023-01-09T16:11:32;8.60;99.90
74901;DHT22;63461;51.416;6.758;2023-01-09T16:14:24;8.60;99.90
74901;DHT22;63461;51.416;6.758;2023-01-09T16:16:53;8.60;99.90
74901;DHT22;63461;51.416;6.758;2023-01-09T16:22:29;8.60;99.90
74901;DHT22;63461;51.416;6.758;2023-01-09T16:24:57;8.70;99.90
74901;DHT22;63461;51.416;6.758;2023-01-09T16:27:30;8.60;99.90
74901;DHT22;63461;51.416;6.758;2023-01-09T16:30:19;8.70;99.90
74901;DHT22;63461;51.416;6.758;2023-01-09T16:32:47;8.70;99.90
74901;DHT22;63461;51.416;6.758;2023-01-09T16:35:20;8.70;99.90
74901;DHT22;63461;51.416;6.758;2023-01-09T16:37:47;8.70;99.90
74901;DHT22;63461;51.416;6.758;2023-01-09T16:42:39;8.60;99.90
74901;DHT22;63461;51.416;6.758;2023-01-09T16:45:37;8.60;99.90
74901;DHT22;63461;51.416;6.758;2023-01-09T16:48:15;8.70;99.90
74901;DHT22;63461;51.416;6.758;2023-01-09T16:50:42;8.70;99.90
74901;DHT22;63461;51.416;6.758;2023-01-09T16:53:22;8.60;99.90
74901;DHT22;63461;51.416;6.758;2023-01-09T16:55:49;8.60;99.90
74901;DHT22;63461;51.416;6.758;2023-01-09T16:58:26;8.70;99.90
74901;DHT22;63461;51.416;6.758;2023-01-09T17:00:53;8.60;99.90
74901;DHT22;63461;51.416;6.758;2023-01-09T17:03:18;8.70;99.90
74901;DHT22;63461;51.416;6.758;2023-01-09T17:05:53;8.60;99.90
74901;DHT22;63461;51.416;6.758;2023-01-09T17:08:28;8.60;99.90
74901;DHT22;63461;51.416;6.758;2023-01-09T17:10:55;8.50;99.90
74901;DHT22;63461;51.416;6.758;2023-01-09T17:13:22;8.40;99.90
74901;DHT22;63461;51.416;6.758;2023-01-09T17:15:50;8.20;99.90
74901;DHT22;63461;51.416;6.758;2023-01-09T17:18:21;8.40;99.90
74901;DHT22;63461;51.416;6.758;2023-01-09T17:20:50;8.40;99.90
74901;DHT22;63461;51.416;6.758;2023-01-09T17:23:16;8.40;99.90
74901;DHT22;63461;51.416;6.758;2023-01-09T17:25:42;8.30;99.90
74901;DHT22;63461;51.416;6.758;2023-01-09T17:28:26;8.30;99.90
74901;DHT22;63461;51.416;6.758;2023-01-09T17:31:04;8.20;99.90
74901;DHT22;63461;51.416;6.758;2023-01-09T17:33:31;8.10;99.90
74901;DHT22;63461;51.416;6.758;2023-01-09T17:35:58;8.20;99.90
74901;DHT22;63461;51.416;6.758;2023-01-09T17:38:25;8.20;99.90
74901;DHT22;63461;51.416;6.758;2023-01-09T17:40:52;8.20;99.90
74901;DHT22;63461;51.416;6.758;2023-01-09T17:43:20;8.20;99.90
74901;DHT22;63461;51.416;6.758;2023-01-09T17:45:46;8.20;99.90
74901;DHT22;63461;51.416;6.758;2023-01-09T17:48:15;8.00;99.90
74901;DHT22;63461;51.416;6.758;2023-01-09T17:50:41;8.10;99.90
74901;DHT22;63461;51.416;6.758;2023-01-09T17:53:14;8.10;99.90
74901;DHT22;63461;51.416;6.758;2023-01-09T17:55:40;8.10;99.90
74901;DHT22;63461;51.416;6.758;2023-01-09T17:58:09;8.20;99.90
74901;DHT22;63461;51.416;6.758;2023-01-09T18:00:43;8.20;99.90
74901;DHT22;63461;51.416;6.758;2023-01-09T18:03:11;8.30;99.90
74901;DHT22;63461;51.416;6.758;2023-01-09T18:05:37;8.30;99.90
74901;DHT22;63461;51.416;6.758;2023-01-09T18:08:02;8.30;99.90
74901;DHT22;63461;51.416;6.758;2023-01-09T18:10:30;8.40;99.90
74901;DHT22;63461;51.416;6.758;2023-01-09T18:12:58;8.40;99.90
74901;DHT22;63461;51.416;6.758;2023-01-09T18:15:24;8.40;99.90
74901;DHT22;63461;51.416;6.758;2023-01-09T18:17:51;8.40;99.90